Time;durP1;ratioP1;P1;durP2;ratioP2;P2;SDS_P1;SDS_P2;PMS_P1;PMS_P2;Temp;Humidity;BMP_temperature;BMP_pressure;BME280_temperature;BME280_humidity;BME280_pressure;Samples;Min_cycle;Max_cycle;Signal;HPM_P1;HPM_P2
2022/07/30 00:02:57;;;;;;;4.73;2.40;;;;;;;;;;8419584;28;20141;-71
2022/07/30 00:06:58;;;;;;;3.90;2.10;;;;;;;;;;8421594;28;20023;-71
2022/07/30 00:10:58;;;;;;;6.15;2.30;;;;;;;;;;8420908;28;20076;-71
2022/07/30 00:14:59;;;;;;;3.80;2.40;;;;;;;;;;8419916;28;20771;-71
2022/07/30 00:18:59;;;;;;;5.15;2.30;;;;;;;;;;8419383;28;20036;-72
2022/07/30 00:23:03;;;;;;;5.78;2.50;;;;;;;;;;8420781;28;20019;-71
2022/07/30 00:27:03;;;;;;;5.93;2.67;;;;;;;;;;8416888;28;20130;-71
2022/07/30 00:31:03;;;;;;;7.83;2.83;;;;;;;;;;8420394;27;20071;-71
2022/07/30 00:35:03;;;;;;;4.70;2.90;;;;;;;;;;8400241;28;21375;-71
2022/07/30 00:39:04;;;;;;;6.55;2.88;;;;;;;;;;8419983;28;20138;-71
2022/07/30 00:43:04;;;;;;;4.68;2.80;;;;;;;;;;8419894;28;20019;-71
2022/07/30 00:47:04;;;;;;;7.72;3.10;;;;;;;;;;8420180;28;20147;-71
2022/07/30 00:51:05;;;;;;;5.90;2.97;;;;;;;;;;8418348;28;20120;-71
2022/07/30 00:55:06;;;;;;;5.72;3.00;;;;;;;;;;8419754;28;20023;-71
2022/07/30 00:59:06;;;;;;;6.63;3.30;;;;;;;;;;8419454;28;20016;-71
2022/07/30 01:03:06;;;;;;;4.75;3.13;;;;;;;;;;8419820;28;20043;-71
2022/07/30 01:07:06;;;;;;;6.93;3.27;;;;;;;;;;8416934;27;20093;-73
2022/07/30 01:11:06;;;;;;;8.98;3.65;;;;;;;;;;8415634;28;20031;-71
2022/07/30 01:15:07;;;;;;;6.65;3.85;;;;;;;;;;8415560;28;20423;-71
2022/07/30 01:23:40;;;;;;;6.10;4.05;;;;;;;;;;8418095;28;20018;-70
2022/07/30 01:27:52;;;;;;;13.80;3.90;;;;;;;;;;8417552;28;20026;-71
2022/07/30 01:31:54;;;;;;;6.45;3.92;;;;;;;;;;8417360;28;20036;-71
2022/07/30 01:35:55;;;;;;;9.80;3.95;;;;;;;;;;8418586;28;20411;-72
2022/07/30 01:39:56;;;;;;;9.70;3.70;;;;;;;;;;8418410;28;20096;-71
2022/07/30 01:43:57;;;;;;;7.00;4.20;;;;;;;;;;8417211;28;20795;-71
2022/07/30 01:47:59;;;;;;;8.52;4.00;;;;;;;;;;8417480;28;20038;-71
2022/07/30 01:52:01;;;;;;;5.97;3.55;;;;;;;;;;8417261;28;20020;-71
2022/07/30 01:56:02;;;;;;;8.32;4.03;;;;;;;;;;8417140;28;20016;-71
2022/07/30 02:00:04;;;;;;;7.03;4.05;;;;;;;;;;8416214;28;21033;-70
2022/07/30 02:04:04;;;;;;;5.25;3.67;;;;;;;;;;8416456;28;20559;-71
2022/07/30 02:08:20;;;;;;;7.65;3.42;;;;;;;;;;8416990;27;20023;-70
2022/07/30 02:12:28;;;;;;;4.55;3.50;;;;;;;;;;8414886;27;20027;-71
2022/07/30 02:16:30;;;;;;;6.45;3.50;;;;;;;;;;8417382;28;20825;-71
2022/07/30 02:20:32;;;;;;;8.00;3.67;;;;;;;;;;8416096;28;20104;-71
2022/07/30 02:24:33;;;;;;;7.75;3.50;;;;;;;;;;8416498;28;20096;-71
2022/07/30 02:28:35;;;;;;;5.13;3.00;;;;;;;;;;8407902;28;20083;-71
2022/07/30 02:32:37;;;;;;;5.55;3.05;;;;;;;;;;8395455;28;20040;-71
2022/07/30 02:36:38;;;;;;;4.85;3.10;;;;;;;;;;8417134;28;20071;-71
2022/07/30 02:40:42;;;;;;;7.80;3.08;;;;;;;;;;8396454;28;20034;-71
2022/07/30 02:44:43;;;;;;;9.75;3.30;;;;;;;;;;8416083;28;20023;-71
2022/07/30 02:48:44;;;;;;;4.75;3.22;;;;;;;;;;8414911;28;20446;-71
2022/07/30 02:52:45;;;;;;;5.32;3.30;;;;;;;;;;8417185;28;20020;-71
2022/07/30 02:56:46;;;;;;;4.22;2.97;;;;;;;;;;8415307;28;20400;-71
2022/07/30 03:00:47;;;;;;;8.55;3.65;;;;;;;;;;8414250;28;20063;-71
2022/07/30 03:04:48;;;;;;;7.03;3.65;;;;;;;;;;8415817;28;20019;-71
2022/07/30 03:08:48;;;;;;;4.93;3.23;;;;;;;;;;8415517;28;20022;-71
2022/07/30 03:12:49;;;;;;;6.80;3.50;;;;;;;;;;8415698;28;21065;-71
2022/07/30 03:16:55;;;;;;;8.00;3.40;;;;;;;;;;8413990;28;20048;-71
2022/07/30 03:20:57;;;;;;;5.95;3.75;;;;;;;;;;8414358;28;20480;-71
2022/07/30 03:24:57;;;;;;;6.60;3.20;;;;;;;;;;8416532;28;20026;-71
2022/07/30 03:28:57;;;;;;;5.97;3.40;;;;;;;;;;8413103;28;20710;-71
2022/07/30 03:32:58;;;;;;;6.93;3.55;;;;;;;;;;8413859;28;20091;-71
2022/07/30 03:36:59;;;;;;;4.55;3.30;;;;;;;;;;8415311;28;20019;-71
2022/07/30 03:41:00;;;;;;;4.40;3.20;;;;;;;;;;8414092;28;20065;-71
2022/07/30 03:45:01;;;;;;;3.25;2.78;;;;;;;;;;8414340;28;20835;-71
2022/07/30 03:49:02;;;;;;;5.97;3.10;;;;;;;;;;8414904;28;20827;-72
2022/07/30 03:53:03;;;;;;;6.43;2.97;;;;;;;;;;8414155;28;20104;-71
2022/07/30 03:57:04;;;;;;;7.38;3.20;;;;;;;;;;8415239;28;20035;-71
2022/07/30 04:01:04;;;;;;;5.45;3.28;;;;;;;;;;8412765;28;20035;-71
2022/07/30 04:05:05;;;;;;;6.03;3.40;;;;;;;;;;8414112;28;20123;-71
2022/07/30 04:09:06;;;;;;;4.05;3.20;;;;;;;;;;8416770;28;20154;-71
2022/07/30 04:13:06;;;;;;;5.13;3.53;;;;;;;;;;8413710;28;20027;-71
2022/07/30 04:17:09;;;;;;;4.40;3.35;;;;;;;;;;8415030;28;20520;-71
2022/07/30 04:21:10;;;;;;;7.37;3.70;;;;;;;;;;8414250;28;20027;-71
2022/07/30 04:25:10;;;;;;;4.57;3.08;;;;;;;;;;8415143;28;20020;-71
2022/07/30 04:29:10;;;;;;;9.70;3.33;;;;;;;;;;8414049;28;20035;-71
2022/07/30 04:33:11;;;;;;;4.93;3.13;;;;;;;;;;8418443;28;20895;-71
2022/07/30 04:37:11;;;;;;;4.47;2.97;;;;;;;;;;8420730;28;20020;-71
2022/07/30 04:41:11;;;;;;;4.05;3.08;;;;;;;;;;8419939;28;20172;-70
2022/07/30 04:45:11;;;;;;;5.22;3.28;;;;;;;;;;8419981;28;20015;-71
2022/07/30 04:49:12;;;;;;;4.38;3.40;;;;;;;;;;8420849;28;20012;-71
2022/07/30 04:53:13;;;;;;;3.95;3.20;;;;;;;;;;8420561;28;20021;-70
2022/07/30 04:57:14;;;;;;;6.47;3.10;;;;;;;;;;8419995;28;20119;-71
2022/07/30 05:01:16;;;;;;;4.15;3.33;;;;;;;;;;8419487;28;20093;-70
2022/07/30 05:05:17;;;;;;;4.70;3.20;;;;;;;;;;8419158;27;20110;-71
2022/07/30 05:09:17;;;;;;;3.63;3.17;;;;;;;;;;8420848;28;20019;-70
2022/07/30 05:13:17;;;;;;;6.70;3.20;;;;;;;;;;8418557;28;20054;-71
2022/07/30 05:17:18;;;;;;;6.80;3.63;;;;;;;;;;8418118;28;20552;-71
2022/07/30 05:21:18;;;;;;;6.80;3.50;;;;;;;;;;8419114;28;20063;-70
2022/07/30 05:25:18;;;;;;;7.07;3.60;;;;;;;;;;8419767;28;20330;-71
2022/07/30 05:29:18;;;;;;;5.75;3.50;;;;;;;;;;8419704;28;21046;-71
2022/07/30 05:33:19;;;;;;;7.45;3.78;;;;;;;;;;8416390;28;20035;-71
2022/07/30 05:37:19;;;;;;;7.55;3.40;;;;;;;;;;8420020;28;20035;-71
2022/07/30 05:41:19;;;;;;;5.38;3.42;;;;;;;;;;8417058;28;20015;-71
2022/07/30 05:45:20;;;;;;;3.75;3.10;;;;;;;;;;8418491;28;20024;-71
2022/07/30 05:49:20;;;;;;;9.05;3.38;;;;;;;;;;8417967;28;20803;-71
2022/07/30 05:53:20;;;;;;;4.97;3.40;;;;;;;;;;8417396;28;20096;-71
2022/07/30 05:57:20;;;;;;;5.70;3.03;;;;;;;;;;8418356;28;20031;-71
2022/07/30 06:01:20;;;;;;;4.15;2.60;;;;;;;;;;8416340;27;20031;-71
2022/07/30 06:05:21;;;;;;;10.93;3.15;;;;;;;;;;8416578;28;20397;-71
2022/07/30 06:09:21;;;;;;;11.55;3.10;;;;;;;;;;8418030;28;20015;-71
2022/07/30 06:13:21;;;;;;;7.45;2.70;;;;;;;;;;8415303;28;20023;-71
2022/07/30 06:17:21;;;;;;;5.15;2.58;;;;;;;;;;8417059;28;20043;-71
2022/07/30 06:21:21;;;;;;;4.57;2.50;;;;;;;;;;8416234;28;20130;-72
2022/07/30 06:25:22;;;;;;;6.30;2.72;;;;;;;;;;8416155;28;20016;-71
2022/07/30 06:29:22;;;;;;;4.40;2.30;;;;;;;;;;8416138;28;20031;-71
2022/07/30 06:33:23;;;;;;;2.95;2.20;;;;;;;;;;8415219;27;20038;-71
2022/07/30 06:37:23;;;;;;;3.85;2.67;;;;;;;;;;8416243;28;20100;-71
2022/07/30 06:41:23;;;;;;;4.82;2.40;;;;;;;;;;8415286;27;20019;-71
2022/07/30 06:45:23;;;;;;;3.63;2.47;;;;;;;;;;8415256;28;20099;-71
2022/07/30 06:49:23;;;;;;;5.88;2.50;;;;;;;;;;8416459;28;20023;-71
2022/07/30 06:53:24;;;;;;;3.58;2.67;;;;;;;;;;8415384;28;20011;-71
2022/07/30 06:57:24;;;;;;;4.05;2.22;;;;;;;;;;8415955;28;20091;-71
2022/07/30 07:01:24;;;;;;;4.80;2.38;;;;;;;;;;8415916;28;20036;-71
2022/07/30 07:05:27;;;;;;;4.33;2.40;;;;;;;;;;8417027;28;20442;-71
2022/07/30 07:09:27;;;;;;;3.60;1.90;;;;;;;;;;8415686;28;20027;-71
2022/07/30 07:13:28;;;;;;;7.03;2.50;;;;;;;;;;8415359;28;20031;-71
2022/07/30 07:17:28;;;;;;;6.35;2.15;;;;;;;;;;8415003;28;20082;-72
2022/07/30 07:21:28;;;;;;;3.60;1.97;;;;;;;;;;8416582;28;20015;-71
2022/07/30 07:25:28;;;;;;;4.88;2.45;;;;;;;;;;8417254;28;20034;-72
2022/07/30 07:29:28;;;;;;;3.78;2.10;;;;;;;;;;8416131;28;20030;-71
2022/07/30 07:33:29;;;;;;;5.40;2.10;;;;;;;;;;8415003;28;20377;-71
2022/07/30 07:37:29;;;;;;;3.85;2.00;;;;;;;;;;8416451;28;20022;-71
2022/07/30 07:41:29;;;;;;;2.17;1.80;;;;;;;;;;8413534;28;20486;-72
2022/07/30 07:45:29;;;;;;;5.38;2.03;;;;;;;;;;8415520;28;20590;-72
2022/07/30 07:49:29;;;;;;;4.93;2.20;;;;;;;;;;8414826;28;20395;-72
2022/07/30 07:53:30;;;;;;;6.40;2.03;;;;;;;;;;8415441;28;20864;-71
2022/07/30 07:57:30;;;;;;;4.53;2.00;;;;;;;;;;8414996;28;20019;-71
2022/07/30 08:01:30;;;;;;;3.75;2.10;;;;;;;;;;8414166;28;20028;-71
2022/07/30 08:05:31;;;;;;;4.20;1.73;;;;;;;;;;8417632;28;20349;-71
2022/07/30 08:09:31;;;;;;;2.45;1.73;;;;;;;;;;8403363;28;20030;-71
2022/07/30 08:13:31;;;;;;;3.60;1.80;;;;;;;;;;8420083;28;20035;-71
2022/07/30 08:17:31;;;;;;;7.22;2.25;;;;;;;;;;8420973;28;20935;-71
2022/07/30 08:21:32;;;;;;;5.15;2.08;;;;;;;;;;8423023;28;20012;-71
2022/07/30 08:25:32;;;;;;;3.70;1.92;;;;;;;;;;8420995;28;20024;-71
2022/07/30 08:29:32;;;;;;;2.93;1.83;;;;;;;;;;8422856;27;21009;-71
2022/07/30 08:33:32;;;;;;;6.17;1.80;;;;;;;;;;8420091;27;20028;-71
2022/07/30 08:37:33;;;;;;;3.97;1.80;;;;;;;;;;8421544;28;20027;-71
2022/07/30 08:41:34;;;;;;;6.68;1.90;;;;;;;;;;8419802;28;20450;-72
2022/07/30 08:45:35;;;;;;;3.58;1.92;;;;;;;;;;8419647;28;20032;-71
2022/07/30 08:49:36;;;;;;;6.75;2.10;;;;;;;;;;8419947;28;20016;-71
2022/07/30 08:53:36;;;;;;;6.35;1.92;;;;;;;;;;8420054;28;20130;-71
2022/07/30 08:57:36;;;;;;;5.43;1.87;;;;;;;;;;8419108;27;20058;-72
2022/07/30 09:01:37;;;;;;;3.22;1.40;;;;;;;;;;8419015;28;20448;-71
2022/07/30 09:05:37;;;;;;;6.13;2.00;;;;;;;;;;8420060;28;20082;-71
2022/07/30 09:09:37;;;;;;;4.10;1.87;;;;;;;;;;8421302;28;20803;-71
2022/07/30 09:13:40;;;;;;;5.20;1.50;;;;;;;;;;8418829;28;21082;-72
2022/07/30 09:17:56;;;;;;;2.90;1.60;;;;;;;;;;8418553;28;20027;-71
2022/07/30 09:21:57;;;;;;;3.70;1.70;;;;;;;;;;8418515;28;20019;-71
2022/07/30 09:25:59;;;;;;;3.10;1.60;;;;;;;;;;8419696;28;20081;-71
2022/07/30 09:29:59;;;;;;;4.90;1.50;;;;;;;;;;8419788;28;20031;-71
2022/07/30 09:33:59;;;;;;;4.57;1.90;;;;;;;;;;8417406;27;20571;-71
2022/07/30 09:38:00;;;;;;;3.17;1.30;;;;;;;;;;8419575;28;20115;-71
2022/07/30 09:42:02;;;;;;;6.00;1.63;;;;;;;;;;8418937;28;20408;-71
2022/07/30 09:46:02;;;;;;;;;;;;;;;;;;8419015;28;20039;-71
2022/07/30 09:50:07;;;;;;;6.72;1.63;;;;;;;;;;8417805;28;19911;-72
2022/07/30 09:54:07;;;;;;;3.80;1.60;;;;;;;;;;8419006;28;20073;-71
2022/07/30 09:58:07;;;;;;;3.85;1.50;;;;;;;;;;8418294;28;20597;-71
2022/07/30 10:02:08;;;;;;;3.03;1.53;;;;;;;;;;8417195;27;20076;-72
2022/07/30 10:06:08;;;;;;;3.13;1.30;;;;;;;;;;8416989;28;20098;-71
2022/07/30 10:10:09;;;;;;;2.97;1.40;;;;;;;;;;8418759;28;20870;-71
2022/07/30 10:14:10;;;;;;;1.47;1.37;;;;;;;;;;8417915;28;20110;-71
2022/07/30 10:18:11;;;;;;;2.50;1.50;;;;;;;;;;8416960;28;20032;-71
2022/07/30 10:22:12;;;;;;;7.77;1.70;;;;;;;;;;8417333;28;20116;-71
2022/07/30 10:26:12;;;;;;;2.60;1.27;;;;;;;;;;8416795;28;20077;-72
2022/07/30 10:30:13;;;;;;;2.73;1.47;;;;;;;;;;8417400;28;20245;-71
2022/07/30 10:34:14;;;;;;;4.47;1.50;;;;;;;;;;8417500;28;20127;-71
2022/07/30 10:38:15;;;;;;;4.67;1.70;;;;;;;;;;8417395;28;20110;-71
2022/07/30 10:42:24;;;;;;;2.97;1.42;;;;;;;;;;8416928;28;20031;-71
2022/07/30 10:46:43;;;;;;;3.47;1.50;;;;;;;;;;8417376;27;20424;-71
2022/07/30 10:50:50;;;;;;;2.42;1.38;;;;;;;;;;8417320;28;20024;-71
2022/07/30 10:54:52;;;;;;;3.60;1.50;;;;;;;;;;8405410;28;20054;-72
2022/07/30 10:58:55;;;;;;;2.58;1.30;;;;;;;;;;8414527;28;20034;-71
2022/07/30 11:03:15;;;;;;;2.08;1.50;;;;;;;;;;8415412;28;20031;-73
2022/07/30 11:07:21;;;;;;;2.45;1.20;;;;;;;;;;8416633;28;20026;-71
2022/07/30 11:11:21;;;;;;;3.55;1.40;;;;;;;;;;8414397;28;20028;-71
2022/07/30 11:15:21;;;;;;;2.92;1.25;;;;;;;;;;8416974;28;20024;-71
2022/07/30 11:19:23;;;;;;;2.28;1.20;;;;;;;;;;8395668;28;20110;-71
2022/07/30 11:23:23;;;;;;;;;;;;;;;;;;8415389;27;20024;-72
2022/07/30 11:27:33;;;;;;;2.92;1.20;;;;;;;;;;8416429;28;20503;-71
2022/07/30 11:31:37;;;;;;;2.03;1.30;;;;;;;;;;8413979;28;20282;-72
2022/07/30 11:35:38;;;;;;;3.63;1.25;;;;;;;;;;8415564;28;20039;-72
2022/07/30 11:39:56;;;;;;;3.50;1.20;;;;;;;;;;8420648;27;20096;-71
2022/07/30 11:44:15;;;;;;;2.63;1.10;;;;;;;;;;8425463;27;20026;-72
2022/07/30 11:48:17;;;;;;;3.22;1.08;;;;;;;;;;8426429;27;20699;-72
2022/07/30 11:52:17;;;;;;;;;;;;;;;;;;8427160;27;20497;-71
2022/07/30 11:56:17;;;;;;;1.70;1.13;;;;;;;;;;8426544;27;19927;-72
2022/07/30 12:00:17;;;;;;;2.75;1.10;;;;;;;;;;8424988;27;20129;-72
2022/07/30 12:04:18;;;;;;;1.63;1.10;;;;;;;;;;8425497;27;20068;-72
2022/07/30 12:08:18;;;;;;;2.30;1.10;;;;;;;;;;8426705;27;20027;-72
2022/07/30 12:12:23;;;;;;;2.17;0.80;;;;;;;;;;8425884;27;20019;-71
2022/07/30 12:16:23;;;;;;;3.67;1.10;;;;;;;;;;8426067;27;20877;-72
2022/07/30 12:20:23;;;;;;;1.45;0.82;;;;;;;;;;8426015;27;20031;-71
2022/07/30 12:24:25;;;;;;;3.87;0.90;;;;;;;;;;8407090;27;20387;-72
2022/07/30 12:28:26;;;;;;;0.82;0.80;;;;;;;;;;8424299;27;20029;-72
2022/07/30 12:32:26;;;;;;;;;;;;;;;;;;8424534;27;20134;-71
2022/07/30 12:36:32;;;;;;;1.10;0.98;;;;;;;;;;8425972;27;19962;-71
2022/07/30 12:40:32;;;;;;;1.35;1.00;;;;;;;;;;8424376;27;20036;-71
2022/07/30 12:44:37;;;;;;;1.50;0.88;;;;;;;;;;8426445;27;20020;-71
2022/07/30 12:48:46;;;;;;;1.52;1.00;;;;;;;;;;8424365;27;20962;-71
2022/07/30 12:52:48;;;;;;;2.50;0.82;;;;;;;;;;8420594;27;20019;-72
2022/07/30 12:56:58;;;;;;;2.47;0.95;;;;;;;;;;8420175;28;20521;-71
2022/07/30 13:00:58;;;;;;;1.98;0.70;;;;;;;;;;8418180;28;20253;-71
2022/07/30 13:04:58;;;;;;;0.93;0.88;;;;;;;;;;8420185;28;20063;-71
2022/07/30 13:08:59;;;;;;;1.10;1.00;;;;;;;;;;8421095;28;20019;-72
2022/07/30 13:12:59;;;;;;;2.77;0.90;;;;;;;;;;8418110;27;20034;-71
2022/07/30 13:16:59;;;;;;;3.03;0.77;;;;;;;;;;8420531;28;20035;-71
2022/07/30 13:21:00;;;;;;;0.90;0.90;;;;;;;;;;8419226;28;20744;-71
2022/07/30 13:25:00;;;;;;;0.90;0.90;;;;;;;;;;8419783;28;20011;-71
2022/07/30 13:29:01;;;;;;;1.00;0.90;;;;;;;;;;8420372;28;20030;-71
2022/07/30 13:33:01;;;;;;;0.80;0.80;;;;;;;;;;8417488;28;20115;-72
2022/07/30 13:37:01;;;;;;;2.25;0.90;;;;;;;;;;8419176;27;20019;-71
2022/07/30 13:41:02;;;;;;;1.20;0.80;;;;;;;;;;8418337;28;20015;-71
2022/07/30 13:45:02;;;;;;;1.77;0.98;;;;;;;;;;8416922;28;20125;-72
2022/07/30 13:49:03;;;;;;;0.80;0.80;;;;;;;;;;8391197;28;20081;-71
2022/07/30 13:53:04;;;;;;;2.43;0.80;;;;;;;;;;8417395;28;20028;-71
2022/07/30 13:57:04;;;;;;;0.80;0.80;;;;;;;;;;8418033;28;20101;-71
2022/07/30 14:01:05;;;;;;;2.17;0.80;;;;;;;;;;8416808;28;20039;-71
2022/07/30 14:05:06;;;;;;;2.73;1.10;;;;;;;;;;8397928;28;20050;-71
2022/07/30 14:09:06;;;;;;;1.17;0.70;;;;;;;;;;8418401;28;20863;-71
2022/07/30 14:13:07;;;;;;;0.82;0.80;;;;;;;;;;8417469;27;20379;-71
2022/07/30 14:17:07;;;;;;;1.03;0.80;;;;;;;;;;8416897;28;20031;-71
2022/07/30 14:21:07;;;;;;;0.75;0.73;;;;;;;;;;8417291;28;20020;-71
2022/07/30 14:25:07;;;;;;;0.85;0.75;;;;;;;;;;8399139;28;20015;-71
2022/07/30 14:29:08;;;;;;;0.93;0.80;;;;;;;;;;8415970;28;20114;-71
2022/07/30 14:33:09;;;;;;;1.60;0.83;;;;;;;;;;8417141;28;20036;-71
2022/07/30 14:37:09;;;;;;;1.10;1.00;;;;;;;;;;8417743;27;20029;-71
2022/07/30 14:41:09;;;;;;;2.08;0.85;;;;;;;;;;8415981;28;20019;-71
2022/07/30 14:45:10;;;;;;;1.33;0.80;;;;;;;;;;8417377;28;20080;-71
2022/07/30 14:49:10;;;;;;;2.70;0.83;;;;;;;;;;8416273;28;20102;-71
2022/07/30 14:53:10;;;;;;;1.17;0.90;;;;;;;;;;8415979;28;20027;-71
2022/07/30 14:57:10;;;;;;;0.95;0.80;;;;;;;;;;8415898;28;20026;-71
2022/07/30 15:01:10;;;;;;;0.73;0.70;;;;;;;;;;8415747;28;20141;-70
2022/07/30 15:05:10;;;;;;;3.03;1.00;;;;;;;;;;8416743;28;20015;-71
2022/07/30 15:09:11;;;;;;;2.25;0.93;;;;;;;;;;8417784;28;20023;-71
2022/07/30 15:13:11;;;;;;;1.30;0.93;;;;;;;;;;8415190;28;20083;-71
2022/07/30 15:17:11;;;;;;;1.23;0.90;;;;;;;;;;8415926;28;20078;-71
2022/07/30 15:21:12;;;;;;;3.00;1.10;;;;;;;;;;8415449;28;20666;-71
2022/07/30 15:25:12;;;;;;;0.60;0.60;;;;;;;;;;8415829;28;20064;-71
2022/07/30 15:29:12;;;;;;;1.10;1.00;;;;;;;;;;8417259;28;20030;-71
2022/07/30 15:33:12;;;;;;;2.05;1.00;;;;;;;;;;8414419;28;20131;-71
2022/07/30 15:37:14;;;;;;;0.80;0.80;;;;;;;;;;8415714;28;20085;-70
2022/07/30 15:41:14;;;;;;;2.40;1.00;;;;;;;;;;8415199;28;20012;-71
2022/07/30 15:45:14;;;;;;;2.25;1.08;;;;;;;;;;8414436;28;20077;-71
2022/07/30 15:49:14;;;;;;;1.20;0.90;;;;;;;;;;8415769;28;20034;-70
2022/07/30 15:53:14;;;;;;;1.00;0.90;;;;;;;;;;8414253;28;20134;-71
2022/07/30 15:57:15;;;;;;;1.63;0.98;;;;;;;;;;8411851;28;20019;-71
2022/07/30 16:01:15;;;;;;;2.58;0.90;;;;;;;;;;8411385;28;20027;-71
2022/07/30 16:05:15;;;;;;;1.20;1.10;;;;;;;;;;8413786;28;20776;-71
2022/07/30 16:09:15;;;;;;;4.40;1.20;;;;;;;;;;8412282;28;20059;-71
2022/07/30 16:13:16;;;;;;;3.15;1.20;;;;;;;;;;8412850;28;20153;-72
2022/07/30 16:17:16;;;;;;;2.42;1.10;;;;;;;;;;8412269;28;20067;-71
2022/07/30 16:21:16;;;;;;;1.90;1.15;;;;;;;;;;8413930;28;20059;-71
2022/07/30 16:25:17;;;;;;;1.00;1.00;;;;;;;;;;8416377;28;20353;-71
2022/07/30 16:29:17;;;;;;;2.70;1.00;;;;;;;;;;8420276;28;21073;-71
2022/07/30 16:33:18;;;;;;;4.20;1.30;;;;;;;;;;8419812;27;20053;-71
2022/07/30 16:37:18;;;;;;;3.50;1.20;;;;;;;;;;8420356;28;20277;-71
2022/07/30 16:41:19;;;;;;;1.00;0.93;;;;;;;;;;8418403;28;20016;-71
2022/07/30 16:45:19;;;;;;;2.33;1.20;;;;;;;;;;8419092;28;20094;-71
2022/07/30 16:49:19;;;;;;;2.67;1.10;;;;;;;;;;8420983;27;20180;-72
2022/07/30 16:53:19;;;;;;;2.85;1.20;;;;;;;;;;8417962;28;20023;-71
2022/07/30 16:57:19;;;;;;;2.30;1.10;;;;;;;;;;8419723;28;20097;-72
2022/07/30 17:01:20;;;;;;;2.80;1.30;;;;;;;;;;8418424;28;20096;-71
2022/07/30 17:05:20;;;;;;;3.72;1.30;;;;;;;;;;8419873;28;20023;-72
2022/07/30 17:09:20;;;;;;;2.47;1.40;;;;;;;;;;8420196;28;20034;-71
2022/07/30 17:13:20;;;;;;;4.30;1.50;;;;;;;;;;8394619;27;20504;-71
2022/07/30 17:17:21;;;;;;;3.70;1.42;;;;;;;;;;8419144;28;20036;-71
2022/07/30 17:21:21;;;;;;;3.25;1.60;;;;;;;;;;8418820;28;20030;-71
2022/07/30 17:25:22;;;;;;;3.13;1.50;;;;;;;;;;8418938;28;20014;-72
2022/07/30 17:29:22;;;;;;;3.72;1.60;;;;;;;;;;8398593;28;20655;-71
2022/07/30 17:33:22;;;;;;;4.85;1.65;;;;;;;;;;8416979;28;20597;-71
2022/07/30 17:37:22;;;;;;;2.80;1.48;;;;;;;;;;8418223;28;20548;-71
2022/07/30 17:41:22;;;;;;;2.20;1.50;;;;;;;;;;8418122;27;20015;-71
2022/07/30 17:45:23;;;;;;;2.00;1.30;;;;;;;;;;8417305;28;21024;-71
2022/07/30 17:49:23;;;;;;;6.07;1.50;;;;;;;;;;8418245;28;20055;-71
2022/07/30 17:53:23;;;;;;;1.73;1.33;;;;;;;;;;8418021;28;20030;-72
2022/07/30 17:57:23;;;;;;;1.90;1.40;;;;;;;;;;8417087;27;20031;-71
2022/07/30 18:01:23;;;;;;;2.35;1.33;;;;;;;;;;8414783;28;20027;-71
2022/07/30 18:05:24;;;;;;;3.13;1.40;;;;;;;;;;8418259;27;20061;-71
2022/07/30 18:09:24;;;;;;;1.40;1.23;;;;;;;;;;8417310;28;20034;-71
2022/07/30 18:13:24;;;;;;;3.53;1.40;;;;;;;;;;8417817;28;20035;-71
2022/07/30 18:17:25;;;;;;;1.27;1.17;;;;;;;;;;8417086;28;21092;-71
2022/07/30 18:21:25;;;;;;;3.30;1.20;;;;;;;;;;8386860;28;20027;-71
2022/07/30 18:25:26;;;;;;;2.47;1.40;;;;;;;;;;8418585;28;20106;-71
2022/07/30 18:29:26;;;;;;;2.45;1.38;;;;;;;;;;8416548;28;20078;-71
2022/07/30 18:33:26;;;;;;;1.37;1.27;;;;;;;;;;8416007;28;20904;-71
2022/07/30 18:37:26;;;;;;;5.63;1.38;;;;;;;;;;8417016;28;20333;-71
2022/07/30 18:41:28;;;;;;;1.50;1.40;;;;;;;;;;8415645;27;20102;-71
2022/07/30 18:45:28;;;;;;;1.77;1.60;;;;;;;;;;8414942;28;20036;-71
2022/07/30 18:49:28;;;;;;;4.10;1.40;;;;;;;;;;8415471;28;20031;-71
2022/07/30 18:53:28;;;;;;;3.13;1.50;;;;;;;;;;8414535;27;20980;-71
2022/07/30 18:57:28;;;;;;;2.53;1.75;;;;;;;;;;8416296;28;20066;-71
2022/07/30 19:01:29;;;;;;;3.05;1.50;;;;;;;;;;8414552;28;20048;-71
2022/07/30 19:05:29;;;;;;;1.73;1.63;;;;;;;;;;8414618;28;20026;-71
2022/07/30 19:09:29;;;;;;;1.70;1.52;;;;;;;;;;8416117;28;20038;-71
2022/07/30 19:13:29;;;;;;;3.00;1.70;;;;;;;;;;8413346;28;20040;-71
2022/07/30 19:17:29;;;;;;;3.28;1.50;;;;;;;;;;8414694;28;20035;-71
2022/07/30 19:21:30;;;;;;;1.75;1.50;;;;;;;;;;8414480;28;20036;-71
2022/07/30 19:25:32;;;;;;;2.13;1.48;;;;;;;;;;8414529;28;20017;-71
2022/07/30 19:29:32;;;;;;;2.03;1.70;;;;;;;;;;8415321;28;20020;-71
2022/07/30 19:33:32;;;;;;;2.92;1.55;;;;;;;;;;8414728;28;20991;-71
2022/07/30 19:37:32;;;;;;;2.08;1.70;;;;;;;;;;8414165;28;20119;-72
2022/07/30 19:41:39;;;;;;;2.00;1.63;;;;;;;;;;8415048;28;20015;-71
2022/07/30 19:45:39;;;;;;;3.00;2.00;;;;;;;;;;8414135;28;20028;-72
2022/07/30 19:49:40;;;;;;;2.75;1.80;;;;;;;;;;8413361;28;20026;-72
2022/07/30 19:53:40;;;;;;;2.50;1.77;;;;;;;;;;8413152;28;20011;-72
2022/07/30 19:57:40;;;;;;;2.22;1.80;;;;;;;;;;8412807;28;20092;-72
2022/07/30 20:01:41;;;;;;;3.80;1.60;;;;;;;;;;8416731;28;20182;-71
2022/07/30 20:05:41;;;;;;;2.10;1.80;;;;;;;;;;8420480;28;20047;-72
2022/07/30 20:09:43;;;;;;;2.97;1.90;;;;;;;;;;8420167;27;20023;-71
2022/07/30 20:13:43;;;;;;;3.30;1.90;;;;;;;;;;8419225;28;20242;-71
2022/07/30 20:17:43;;;;;;;2.20;1.60;;;;;;;;;;8418843;28;20137;-71
2022/07/30 20:21:44;;;;;;;2.65;1.60;;;;;;;;;;8418934;28;20614;-71
2022/07/30 20:25:44;;;;;;;2.60;1.50;;;;;;;;;;8419369;27;20100;-71
2022/07/30 20:29:44;;;;;;;4.67;1.43;;;;;;;;;;8400485;28;20781;-71
2022/07/30 20:33:44;;;;;;;3.67;1.60;;;;;;;;;;8417577;28;20548;-71
2022/07/30 20:37:44;;;;;;;1.70;1.45;;;;;;;;;;8419575;28;20019;-71
2022/07/30 20:41:44;;;;;;;2.63;1.80;;;;;;;;;;8417663;28;20026;-71
2022/07/30 20:45:45;;;;;;;2.63;1.90;;;;;;;;;;8417950;28;20546;-71
2022/07/30 20:49:45;;;;;;;1.67;1.50;;;;;;;;;;8418142;28;20093;-71
2022/07/30 20:53:45;;;;;;;3.20;1.50;;;;;;;;;;8418609;28;20060;-71
2022/07/30 20:57:46;;;;;;;3.55;2.22;;;;;;;;;;8418908;27;20027;-71
2022/07/30 21:01:46;;;;;;;4.93;1.90;;;;;;;;;;8417415;27;20031;-71
2022/07/30 21:05:46;;;;;;;2.15;1.50;;;;;;;;;;8417572;28;20046;-71
2022/07/30 21:09:46;;;;;;;4.50;1.67;;;;;;;;;;8418312;28;20023;-71
2022/07/30 21:13:47;;;;;;;1.73;1.42;;;;;;;;;;8416975;28;20024;-71
2022/07/30 21:17:47;;;;;;;1.65;1.50;;;;;;;;;;8416078;28;20070;-71
2022/07/30 21:21:48;;;;;;;1.65;1.55;;;;;;;;;;8417711;27;20023;-71
2022/07/30 21:25:48;;;;;;;2.28;1.60;;;;;;;;;;8417553;27;20602;-71
2022/07/30 21:29:49;;;;;;;2.17;1.50;;;;;;;;;;8418107;28;20126;-71
2022/07/30 21:33:49;;;;;;;1.92;1.65;;;;;;;;;;8416942;27;20027;-71
2022/07/30 21:37:49;;;;;;;1.95;1.77;;;;;;;;;;8417059;28;20776;-71
2022/07/30 21:41:49;;;;;;;2.15;1.60;;;;;;;;;;8417001;28;20055;-71
2022/07/30 21:45:49;;;;;;;3.70;1.50;;;;;;;;;;8417293;28;20031;-71
2022/07/30 21:49:49;;;;;;;1.60;1.50;;;;;;;;;;8416164;28;20775;-71
2022/07/30 21:53:49;;;;;;;2.88;1.55;;;;;;;;;;8415834;28;20022;-71
2022/07/30 21:57:50;;;;;;;1.73;1.50;;;;;;;;;;8416201;27;20055;-71
2022/07/30 22:01:50;;;;;;;3.10;1.47;;;;;;;;;;8416183;27;20730;-71
2022/07/30 22:05:50;;;;;;;2.38;1.60;;;;;;;;;;8416693;28;20020;-71
2022/07/30 22:09:50;;;;;;;2.17;1.47;;;;;;;;;;8416733;27;20030;-71
2022/07/30 22:13:51;;;;;;;1.40;1.30;;;;;;;;;;8415203;28;20942;-71
2022/07/30 22:17:51;;;;;;;3.13;1.67;;;;;;;;;;8415698;27;20150;-71
2022/07/30 22:21:51;;;;;;;2.38;1.75;;;;;;;;;;8414787;28;20016;-71
2022/07/30 22:25:52;;;;;;;1.50;1.40;;;;;;;;;;8416434;28;20124;-71
2022/07/30 22:29:52;;;;;;;2.58;1.50;;;;;;;;;;8395515;28;20076;-71
2022/07/30 22:33:52;;;;;;;2.67;1.70;;;;;;;;;;8414224;28;20786;-71
2022/07/30 22:37:55;;;;;;;4.13;1.80;;;;;;;;;;8416614;28;20028;-70
2022/07/30 22:41:55;;;;;;;2.50;1.70;;;;;;;;;;8415123;28;20125;-70
2022/07/30 22:45:55;;;;;;;2.25;1.60;;;;;;;;;;8415232;28;20113;-70
2022/07/30 22:49:56;;;;;;;2.03;1.50;;;;;;;;;;8396266;28;20390;-72
2022/07/30 22:53:56;;;;;;;3.65;1.58;;;;;;;;;;8416559;28;20740;-71
2022/07/30 22:57:56;;;;;;;4.30;1.60;;;;;;;;;;8414472;28;20114;-70
2022/07/30 23:01:56;;;;;;;2.13;1.60;;;;;;;;;;8412976;28;20073;-70
2022/07/30 23:05:57;;;;;;;5.18;1.88;;;;;;;;;;8413941;28;20980;-70
2022/07/30 23:09:58;;;;;;;3.70;1.83;;;;;;;;;;8414732;28;20019;-71
2022/07/30 23:13:58;;;;;;;3.83;1.70;;;;;;;;;;8414077;28;20520;-70
2022/07/30 23:17:58;;;;;;;2.53;1.42;;;;;;;;;;8412545;28;20507;-70
2022/07/30 23:21:58;;;;;;;7.28;1.83;;;;;;;;;;8415168;28;20039;-71
2022/07/30 23:26:00;;;;;;;1.70;1.60;;;;;;;;;;8415113;28;20015;-71
2022/07/30 23:30:00;;;;;;;2.85;1.73;;;;;;;;;;8413397;28;20433;-71
2022/07/30 23:34:00;;;;;;;3.80;1.70;;;;;;;;;;8411744;28;20032;-70
2022/07/30 23:38:01;;;;;;;8.13;1.88;;;;;;;;;;8412547;28;20074;-70
2022/07/30 23:42:01;;;;;;;1.67;1.58;;;;;;;;;;8412296;28;20484;-70
2022/07/30 23:46:02;;;;;;;3.23;1.67;;;;;;;;;;8413778;28;20032;-70
2022/07/30 23:50:02;;;;;;;2.00;1.60;;;;;;;;;;8413268;28;20015;-70
2022/07/30 23:54:02;;;;;;;2.05;1.40;;;;;;;;;;8414727;28;20023;-70
2022/07/30 23:58:03;;;;;;;2.70;1.30;;;;;;;;;;8413967;28;20794;-70
